createdAt,value
2022-11-03T00:01:15.892Z,9.80
2022-11-03T00:05:36.689Z,9.71
2022-11-03T00:09:40.192Z,9.66
2022-11-03T00:13:45.901Z,9.59
2022-11-03T00:17:49.522Z,9.52
2022-11-03T00:21:52.761Z,9.52
2022-11-03T00:25:55.917Z,9.48
2022-11-03T00:30:00.351Z,9.46
2022-11-03T00:34:04.283Z,9.42
2022-11-03T00:38:07.285Z,9.39
2022-11-03T00:42:10.499Z,9.36
2022-11-03T00:46:15.642Z,9.30
2022-11-03T00:50:19.013Z,9.28
2022-11-03T00:54:22.023Z,9.25
2022-11-03T00:58:25.042Z,9.23
2022-11-03T01:02:29.500Z,9.20
2022-11-03T01:06:51.386Z,9.16
2022-11-03T01:11:11.989Z,9.11
2022-11-03T01:15:15.105Z,9.06
2022-11-03T01:19:19.560Z,9.02
2022-11-03T01:23:22.819Z,9.00
2022-11-03T01:27:25.867Z,8.96
2022-11-03T01:31:29.701Z,8.93
2022-11-03T01:35:34.336Z,8.90
2022-11-03T01:39:37.376Z,8.87
2022-11-03T01:43:41.301Z,8.81
2022-11-03T01:47:45.542Z,8.73
2022-11-03T01:51:53.621Z,8.67
2022-11-03T01:55:58.568Z,8.62
2022-11-03T02:00:03.425Z,8.60
2022-11-03T02:04:20.605Z,8.53
2022-11-03T02:08:31.875Z,8.47
2022-11-03T02:12:35.886Z,8.45
2022-11-03T02:16:41.697Z,8.43
2022-11-03T02:20:48.610Z,8.39
2022-11-03T02:24:57.491Z,8.39
2022-11-03T02:29:01.910Z,8.36
2022-11-03T02:33:10.503Z,8.32
2022-11-03T02:37:17.699Z,8.28
2022-11-03T02:41:23.034Z,8.24
2022-11-03T02:45:29.182Z,8.19
2022-11-03T02:49:32.389Z,8.12
2022-11-03T02:53:40.573Z,8.10
2022-11-03T02:57:48.541Z,8.09
2022-11-03T03:01:57.494Z,8.06
2022-11-03T03:06:10.802Z,8.03
2022-11-03T03:10:18.630Z,8.03
2022-11-03T03:14:25.742Z,8.02
2022-11-03T03:18:37.098Z,8.00
2022-11-03T03:22:47.631Z,7.99
2022-11-03T03:26:51.877Z,7.99
2022-11-03T03:30:58.105Z,7.99
2022-11-03T03:35:05.168Z,8.00
2022-11-03T03:39:11.067Z,8.00
2022-11-03T03:43:16.110Z,8.01
2022-11-03T03:47:24.370Z,7.98
2022-11-03T03:51:29.909Z,7.96
2022-11-03T03:55:37.516Z,7.94
2022-11-03T03:59:40.504Z,7.90
2022-11-03T04:03:43.518Z,7.85
2022-11-03T04:07:51.543Z,7.82
2022-11-03T04:12:12.265Z,7.80
2022-11-03T04:16:33.216Z,7.77
2022-11-03T04:20:53.968Z,7.79
2022-11-03T04:24:59.565Z,7.81
2022-11-03T04:29:03.264Z,7.80
2022-11-03T04:33:13.446Z,7.78
2022-11-03T04:37:17.058Z,7.77
2022-11-03T04:41:23.205Z,7.76
2022-11-03T04:45:30.406Z,7.75
2022-11-03T04:49:33.554Z,7.76
2022-11-03T04:53:36.573Z,7.77
2022-11-03T04:57:41.258Z,7.78
2022-11-03T05:01:46.703Z,7.75
2022-11-03T05:05:51.667Z,7.74
2022-11-03T05:09:55.991Z,7.73
2022-11-03T05:14:02.616Z,7.75
2022-11-03T05:18:19.045Z,7.79
2022-11-03T05:22:26.665Z,7.86
2022-11-03T05:26:33.523Z,7.91
2022-11-03T05:30:37.889Z,7.95
2022-11-03T05:34:44.230Z,7.98
2022-11-03T05:38:47.582Z,8.01
2022-11-03T05:42:54.730Z,8.03
2022-11-03T05:47:02.022Z,8.04
2022-11-03T05:51:19.491Z,8.08
2022-11-03T05:55:27.953Z,8.08
2022-11-03T05:59:30.912Z,8.11
2022-11-03T06:03:37.703Z,8.16
2022-11-03T06:07:40.864Z,8.23
2022-11-03T06:11:45.029Z,8.27
2022-11-03T06:15:49.417Z,8.31
2022-11-03T06:19:55.959Z,8.34
2022-11-03T06:24:00.359Z,8.34
2022-11-03T06:28:05.839Z,8.36
2022-11-03T06:32:13.805Z,8.34
2022-11-03T06:36:20.691Z,8.33
2022-11-03T06:40:37.622Z,8.36
2022-11-03T06:44:42.828Z,8.39
2022-11-03T06:48:45.715Z,8.39
2022-11-03T06:52:50.885Z,8.35
2022-11-03T06:56:54.026Z,8.38
2022-11-03T07:01:03.297Z,8.43
2022-11-03T07:05:10.898Z,8.50
2022-11-03T07:09:21.037Z,8.56
2022-11-03T07:13:25.925Z,8.59
2022-11-03T07:17:28.805Z,8.62
2022-11-03T07:21:37.541Z,8.65
2022-11-03T07:25:41.854Z,8.71
2022-11-03T07:29:45.895Z,8.76
2022-11-03T07:33:49.011Z,8.83
2022-11-03T07:37:53.517Z,8.96
2022-11-03T07:41:57.831Z,9.07
2022-11-03T07:46:05.858Z,9.20
2022-11-03T07:50:15.900Z,9.30
2022-11-03T07:54:23.529Z,9.43
2022-11-03T07:58:35.442Z,9.57
2022-11-03T08:02:45.213Z,9.75
2022-11-03T08:06:49.288Z,9.96
2022-11-03T08:10:52.254Z,10.10
2022-11-03T08:14:59.501Z,10.19
2022-11-03T08:19:05.746Z,10.25
2022-11-03T08:27:31.505Z,10.39
2022-11-03T08:31:35.918Z,10.43
2022-11-03T08:35:39.019Z,10.51
2022-11-03T08:39:41.885Z,10.55
2022-11-03T08:43:44.867Z,10.63
2022-11-03T08:47:49.276Z,10.68
2022-11-03T08:51:52.197Z,10.74
2022-11-03T08:55:55.491Z,10.78
2022-11-03T08:59:58.921Z,10.81
2022-11-03T09:04:03.501Z,10.91
2022-11-03T09:12:29.897Z,11.14
2022-11-03T09:16:33.029Z,11.29
2022-11-03T09:20:37.429Z,11.44
2022-11-03T09:24:40.493Z,11.55
2022-11-03T09:28:43.463Z,11.68
2022-11-03T09:32:47.272Z,11.82
2022-11-03T09:36:53.348Z,11.97
2022-11-03T09:40:58.393Z,12.11
2022-11-03T09:45:02.870Z,12.23
2022-11-03T09:49:06.976Z,12.35
2022-11-03T09:53:13.245Z,12.46
2022-11-03T09:57:18.112Z,12.58
2022-11-03T10:01:21.268Z,12.68
2022-11-03T10:05:26.438Z,12.79
2022-11-03T10:09:31.149Z,12.83
2022-11-03T10:13:36.860Z,12.90
2022-11-03T10:17:41.023Z,12.98
2022-11-03T10:21:44.582Z,13.08
2022-11-03T10:25:49.268Z,13.17
2022-11-03T10:30:08.319Z,13.25
2022-11-03T10:34:26.255Z,13.36
2022-11-03T10:38:31.770Z,13.46
2022-11-03T10:42:36.251Z,13.49
2022-11-03T10:46:55.527Z,13.56
2022-11-03T10:50:58.766Z,13.62
2022-11-03T10:55:02.240Z,13.72
2022-11-03T10:59:06.623Z,13.79
2022-11-03T11:03:12.588Z,13.88
2022-11-03T11:07:23.325Z,13.93
2022-11-03T11:11:26.259Z,14.00
2022-11-03T11:15:42.629Z,14.03
2022-11-03T11:20:25.022Z,14.12
2022-11-03T11:25:03.386Z,14.15
2022-11-03T11:29:35.926Z,14.24
2022-11-03T11:33:40.208Z,14.32
2022-11-03T11:37:43.565Z,14.36
2022-11-03T11:42:09.310Z,14.41
2022-11-03T11:46:41.260Z,14.45
2022-11-03T11:50:45.830Z,14.46
2022-11-03T11:54:48.824Z,14.51
2022-11-03T11:58:54.974Z,14.53
2022-11-03T12:02:59.487Z,14.56
2022-11-03T12:07:04.109Z,14.60
2022-11-03T12:11:08.945Z,14.63
2022-11-03T12:15:50.582Z,14.64
2022-11-03T12:19:54.720Z,14.67
2022-11-03T12:23:59.040Z,14.77
2022-11-03T12:28:01.938Z,14.85
2022-11-03T12:32:04.926Z,14.89
2022-11-03T12:36:08.800Z,14.92
2022-11-03T12:40:14.965Z,14.92
2022-11-03T12:44:17.964Z,14.94
2022-11-03T12:48:21.073Z,14.98
2022-11-03T12:52:23.989Z,14.99
2022-11-03T12:56:28.300Z,15.01
2022-11-03T13:00:31.339Z,15.04
2022-11-03T13:04:34.264Z,15.07
2022-11-03T13:08:37.230Z,15.10
2022-11-03T13:12:41.655Z,15.14
2022-11-03T13:16:44.705Z,15.17
2022-11-03T13:20:47.998Z,15.19
2022-11-03T13:24:50.944Z,15.13
2022-11-03T13:28:55.265Z,15.13
2022-11-03T13:32:59.061Z,15.12
2022-11-03T13:37:02.119Z,15.11
2022-11-03T13:41:08.807Z,15.11
2022-11-03T13:45:13.873Z,15.10
2022-11-03T13:49:52.507Z,15.08
2022-11-03T14:06:52.305Z,14.98
2022-11-03T14:10:56.388Z,14.99
2022-11-03T14:15:00.097Z,15.00
2022-11-03T14:19:04.431Z,14.96
2022-11-03T14:23:07.652Z,14.93
2022-11-03T14:27:10.623Z,14.90
2022-11-03T14:31:13.537Z,14.87
2022-11-03T14:35:18.256Z,14.83
2022-11-03T14:39:21.139Z,14.79
2022-11-03T14:43:24.143Z,14.75
2022-11-03T14:47:31.431Z,14.70
2022-11-03T14:51:35.829Z,14.65
2022-11-03T14:55:38.724Z,14.63
2022-11-03T14:59:41.825Z,14.56
2022-11-03T15:03:44.806Z,14.55
2022-11-03T15:07:49.077Z,14.53
2022-11-03T15:11:52.014Z,14.50
2022-11-03T15:15:55.139Z,14.46
2022-11-03T15:19:58.025Z,14.42
2022-11-03T15:28:25.756Z,14.30
2022-11-03T15:32:33.906Z,14.26
2022-11-03T15:36:39.329Z,14.23
2022-11-03T15:40:43.773Z,14.18
2022-11-03T15:44:46.683Z,14.16
2022-11-03T15:48:49.636Z,14.11
2022-11-03T15:52:52.813Z,14.03
2022-11-03T15:56:57.150Z,13.96
2022-11-03T16:01:00.200Z,13.89
2022-11-03T16:05:03.238Z,13.86
2022-11-03T16:09:06.187Z,13.80
2022-11-03T16:13:10.447Z,13.75
2022-11-03T16:17:13.379Z,13.72
2022-11-03T16:21:16.532Z,13.69
2022-11-03T16:25:21.451Z,13.65
2022-11-03T16:29:26.151Z,13.63
2022-11-03T16:33:29.268Z,13.58
2022-11-03T16:37:32.391Z,13.55
2022-11-03T16:41:35.436Z,13.53
2022-11-03T16:45:39.733Z,13.51
2022-11-03T16:49:42.877Z,13.48
2022-11-03T16:53:45.776Z,13.46
2022-11-03T16:57:48.680Z,13.43
2022-11-03T17:01:53.340Z,13.38
2022-11-03T17:05:56.386Z,13.35
2022-11-03T17:09:59.328Z,13.31
2022-11-03T17:14:02.891Z,13.29
2022-11-03T17:18:07.657Z,13.26
2022-11-03T17:22:10.929Z,13.25
2022-11-03T17:26:14.538Z,13.23
2022-11-03T17:30:21.091Z,13.21
2022-11-03T17:34:26.475Z,13.20
2022-11-03T17:38:29.682Z,13.14
2022-11-03T17:42:32.671Z,13.11
2022-11-03T17:46:35.542Z,13.07
2022-11-03T17:50:45.795Z,13.07
2022-11-03T17:54:49.476Z,12.95
2022-11-03T17:58:52.707Z,12.81
2022-11-03T18:02:57.393Z,12.67
2022-11-03T18:07:01.970Z,12.54
2022-11-03T18:11:04.985Z,12.45
2022-11-03T18:15:12.464Z,12.30
2022-11-03T18:19:17.226Z,12.19
2022-11-03T18:23:23.871Z,12.11
2022-11-03T18:27:27.010Z,12.09
2022-11-03T18:31:34.435Z,12.04
2022-11-03T18:35:37.407Z,11.98
2022-11-03T18:39:41.763Z,11.92
2022-11-03T18:43:44.638Z,11.86
2022-11-03T18:47:47.713Z,11.83
2022-11-03T18:51:54.421Z,11.78
2022-11-03T18:56:02.121Z,11.74
2022-11-03T19:00:06.311Z,11.72
2022-11-03T19:04:15.046Z,11.69
2022-11-03T19:08:21.940Z,11.65
2022-11-03T19:12:26.284Z,11.59
2022-11-03T19:16:30.740Z,11.55
2022-11-03T19:20:33.702Z,11.51
2022-11-03T19:24:36.825Z,11.46
2022-11-03T19:28:41.232Z,11.41
2022-11-03T19:32:46.767Z,11.39
2022-11-03T19:36:51.816Z,11.36
2022-11-03T19:41:12.068Z,11.31
2022-11-03T19:45:18.424Z,11.27
2022-11-03T19:49:21.984Z,11.22
2022-11-03T19:53:28.557Z,11.21
2022-11-03T19:57:32.423Z,11.17
2022-11-03T20:01:36.758Z,11.12
2022-11-03T20:05:43.885Z,11.14
2022-11-03T20:09:49.473Z,11.12
2022-11-03T20:13:52.451Z,11.09
2022-11-03T20:17:56.701Z,11.08
2022-11-03T20:22:00.442Z,11.08
2022-11-03T20:26:04.327Z,11.05
2022-11-03T20:30:08.300Z,11.02
2022-11-03T20:34:57.049Z,10.99
2022-11-03T20:39:01.193Z,10.98
2022-11-03T20:43:04.325Z,10.95
2022-11-03T20:47:13.757Z,10.93
2022-11-03T20:51:19.637Z,10.90
2022-11-03T20:55:25.099Z,10.87
2022-11-03T20:59:30.130Z,10.84
2022-11-03T21:03:58.008Z,10.80
2022-11-03T21:07:58.845Z,10.73
2022-11-03T21:12:01.966Z,10.70
2022-11-03T21:16:24.872Z,10.67
2022-11-03T21:20:27.936Z,10.61
2022-11-03T21:24:32.209Z,10.58
2022-11-03T21:28:35.086Z,10.57
2022-11-03T21:32:38.815Z,10.56
2022-11-03T21:36:41.698Z,10.53
2022-11-03T21:40:50.038Z,10.51
2022-11-03T21:44:54.272Z,10.51
2022-11-03T21:49:14.567Z,10.50
2022-11-03T21:53:17.498Z,10.47
2022-11-03T21:57:21.777Z,10.47
2022-11-03T22:01:25.162Z,10.50
2022-11-03T22:05:28.363Z,10.44
2022-11-03T22:09:31.357Z,10.42
2022-11-03T22:13:35.607Z,10.39
2022-11-03T22:17:38.732Z,10.39
2022-11-03T22:21:55.531Z,10.32
2022-11-03T22:26:15.961Z,10.30
2022-11-03T22:30:37.760Z,10.25
2022-11-03T22:34:57.981Z,10.23
2022-11-03T22:39:18.226Z,10.18
2022-11-03T22:43:35.446Z,10.14
2022-11-03T22:47:39.905Z,10.11
2022-11-03T22:51:42.839Z,10.10
2022-11-03T22:55:45.759Z,10.07
2022-11-03T22:59:48.714Z,10.05
2022-11-03T23:04:17.931Z,10.01
